Time;durP1;ratioP1;P1;durP2;ratioP2;P2;SDS_P1;SDS_P2;PMS_P1;PMS_P2;Temp;Humidity;BMP_temperature;BMP_pressure;BME280_temperature;BME280_humidity;BME280_pressure;Samples;Min_cycle;Max_cycle;Signal;HPM_P1;HPM_P2
2023/05/07 00:00:02;;;;;;;35.85;25.63;;;12.00;99.90;;;;;;5096268;28;20089;-25
2023/05/07 00:02:27;;;;;;;34.83;26.00;;;11.90;99.90;;;;;;5095795;28;20044;-25
2023/05/07 00:04:53;;;;;;;37.17;25.45;;;11.90;99.90;;;;;;5095957;28;20047;-24
2023/05/07 00:07:19;;;;;;;33.60;24.45;;;11.90;99.90;;;;;;5095687;28;20048;-25
2023/05/07 00:09:44;;;;;;;41.03;28.08;;;11.90;99.90;;;;;;5095646;28;20052;-24
2023/05/07 00:12:10;;;;;;;33.50;25.23;;;11.80;99.90;;;;;;5096423;28;20047;-25
2023/05/07 00:14:36;;;;;;;42.88;28.55;;;11.80;99.90;;;;;;5096054;28;20478;-24
2023/05/07 00:17:01;;;;;;;36.60;28.10;;;11.70;99.90;;;;;;5095505;28;20138;-24
2023/05/07 00:19:27;;;;;;;37.30;26.48;;;11.70;99.90;;;;;;5094662;28;20044;-24
2023/05/07 00:21:53;;;;;;;44.03;29.27;;;11.70;99.90;;;;;;5094394;28;20130;-25
2023/05/07 00:24:19;;;;;;;42.35;29.15;;;11.60;99.90;;;;;;5095337;28;20127;-24
2023/05/07 00:26:45;;;;;;;45.08;28.48;;;11.60;99.90;;;;;;5095074;28;20087;-24
2023/05/07 00:29:11;;;;;;;40.53;30.00;;;11.60;99.90;;;;;;5095759;28;20048;-24
2023/05/07 00:31:37;;;;;;;39.30;29.52;;;11.50;99.90;;;;;;5094878;28;20102;-24
2023/05/07 00:34:02;;;;;;;42.72;29.25;;;11.50;99.90;;;;;;5094837;28;20039;-24
2023/05/07 00:36:28;;;;;;;44.05;29.90;;;11.50;99.90;;;;;;5095129;28;20075;-24
2023/05/07 00:38:57;;;;;;;46.95;31.13;;;11.40;99.90;;;;;;5095008;28;20058;-24
2023/05/07 00:41:22;;;;;;;47.55;32.40;;;11.40;99.90;;;;;;5093782;28;20397;-24
2023/05/07 00:43:48;;;;;;;46.53;31.77;;;11.40;99.90;;;;;;5094950;28;20052;-24
2023/05/07 00:46:15;;;;;;;48.05;31.83;;;11.30;99.90;;;;;;5094939;28;20047;-24
2023/05/07 00:48:41;;;;;;;46.58;32.47;;;11.30;99.90;;;;;;5094896;28;20104;-24
2023/05/07 00:51:07;;;;;;;47.70;32.50;;;11.20;99.90;;;;;;5094709;28;20123;-24
2023/05/07 00:53:32;;;;;;;43.17;31.77;;;11.20;99.90;;;;;;5094768;28;20090;-24
2023/05/07 00:56:00;;;;;;;48.83;32.67;;;11.20;99.90;;;;;;5094024;28;20040;-24
2023/05/07 00:58:26;;;;;;;47.45;33.28;;;11.20;99.90;;;;;;5095251;28;20181;-24
2023/05/07 01:00:52;;;;;;;52.45;34.03;;;11.10;99.90;;;;;;5094560;28;20127;-25
2023/05/07 01:03:18;;;;;;;48.50;33.67;;;11.10;99.90;;;;;;5093654;28;20048;-24
2023/05/07 01:05:46;;;;;;;51.58;35.72;;;11.10;99.90;;;;;;5093363;28;20133;-24
2023/05/07 01:08:12;;;;;;;54.03;36.33;;;11.10;99.90;;;;;;5094446;28;20048;-25
2023/05/07 01:10:42;;;;;;;52.60;36.78;;;11.10;99.90;;;;;;5094449;28;20087;-24
2023/05/07 01:13:12;;;;;;;62.53;39.13;;;11.00;99.90;;;;;;5093272;28;20048;-25
2023/05/07 01:15:38;;;;;;;56.08;37.25;;;11.00;99.90;;;;;;5094297;28;20101;-24
2023/05/07 01:18:05;;;;;;;58.63;37.95;;;11.00;99.90;;;;;;5094309;28;20044;-24
2023/05/07 01:20:30;;;;;;;60.00;39.47;;;11.00;99.90;;;;;;5094820;28;20404;-24
2023/05/07 01:22:57;;;;;;;58.40;38.20;;;11.00;99.90;;;;;;5093546;28;20073;-24
2023/05/07 01:25:23;;;;;;;55.33;36.15;;;11.00;99.90;;;;;;5093849;28;20055;-24
2023/05/07 01:27:49;;;;;;;56.40;38.50;;;11.00;99.90;;;;;;5093461;28;20044;-24
2023/05/07 01:30:17;;;;;;;58.95;40.38;;;11.00;99.90;;;;;;5093976;28;20544;-25
2023/05/07 01:32:45;;;;;;;58.63;39.42;;;11.00;99.90;;;;;;5094066;28;20044;-24
2023/05/07 01:35:13;;;;;;;56.42;39.10;;;11.00;99.90;;;;;;5094036;28;20040;-24
2023/05/07 01:37:40;;;;;;;61.80;40.58;;;11.00;99.90;;;;;;5094011;28;20040;-25
2023/05/07 01:40:07;;;;;;;65.53;41.83;;;11.00;99.90;;;;;;5093913;28;20048;-25
2023/05/07 01:42:33;;;;;;;58.08;39.80;;;11.00;99.90;;;;;;5093977;28;20456;-25
2023/05/07 01:44:59;;;;;;;59.05;40.88;;;11.00;99.90;;;;;;5093941;28;20075;-25
2023/05/07 01:47:26;;;;;;;61.58;41.00;;;11.00;99.90;;;;;;5076715;28;20048;-25
2023/05/07 01:49:52;;;;;;;59.45;40.50;;;11.00;99.90;;;;;;5094094;28;20107;-26
2023/05/07 01:52:18;;;;;;;61.80;40.97;;;10.90;99.90;;;;;;5092592;28;20050;-24
2023/05/07 01:54:43;;;;;;;62.13;42.50;;;10.90;99.90;;;;;;5093814;28;20048;-25
2023/05/07 01:57:09;;;;;;;63.70;42.55;;;10.90;99.90;;;;;;5093391;28;20126;-24
2023/05/07 01:59:35;;;;;;;64.82;42.28;;;10.90;99.90;;;;;;5093708;28;20040;-24
2023/05/07 02:02:01;;;;;;;68.25;44.70;;;10.90;99.90;;;;;;5093759;28;20397;-25
2023/05/07 02:04:26;;;;;;;66.30;43.78;;;10.90;99.90;;;;;;5093996;28;20123;-25
2023/05/07 02:06:52;;;;;;;63.83;43.55;;;10.90;99.90;;;;;;5092992;28;20473;-25
2023/05/07 02:09:19;;;;;;;65.15;42.17;;;10.90;99.90;;;;;;5093675;28;20048;-25
2023/05/07 02:11:45;;;;;;;64.60;42.47;;;10.90;99.90;;;;;;5093662;28;20052;-25
2023/05/07 02:14:10;;;;;;;63.08;42.75;;;10.90;99.90;;;;;;5092655;28;20048;-25
2023/05/07 02:16:36;;;;;;;59.63;41.08;;;10.90;99.90;;;;;;5092374;28;20048;-25
2023/05/07 02:19:02;;;;;;;63.42;41.63;;;10.80;99.90;;;;;;5093574;28;20045;-25
2023/05/07 02:21:28;;;;;;;63.10;39.53;;;10.80;99.90;;;;;;5094123;28;20106;-25
2023/05/07 02:23:53;;;;;;;65.95;41.58;;;10.80;99.90;;;;;;5093516;28;20051;-24
2023/05/07 02:26:21;;;;;;;60.25;39.58;;;10.80;99.90;;;;;;5092132;28;20056;-25
2023/05/07 02:28:47;;;;;;;60.67;40.63;;;10.80;99.90;;;;;;5093503;28;20040;-24
2023/05/07 02:31:12;;;;;;;64.93;39.90;;;10.70;99.90;;;;;;5093442;28;20055;-24
2023/05/07 02:33:38;;;;;;;63.83;39.15;;;10.70;99.90;;;;;;5093426;28;20044;-24
2023/05/07 02:36:09;;;;;;;60.90;41.10;;;10.70;99.90;;;;;;5093427;28;20051;-24
2023/05/07 02:38:35;;;;;;;60.85;39.78;;;10.70;99.90;;;;;;5075761;28;20486;-24
2023/05/07 02:41:00;;;;;;;60.75;39.60;;;10.70;99.90;;;;;;5093438;28;20048;-24
2023/05/07 02:43:26;;;;;;;63.80;40.33;;;10.70;99.90;;;;;;5096487;28;20135;-24
2023/05/07 02:46:05;;;;;;;67.00;42.20;;;10.70;99.90;;;;;;5097227;28;20045;-24
2023/05/07 02:48:31;;;;;;;66.43;41.35;;;10.70;99.90;;;;;;5097785;28;20048;-24
2023/05/07 02:50:58;;;;;;;69.13;42.42;;;10.70;99.90;;;;;;5095768;28;20121;-24
2023/05/07 02:53:25;;;;;;;73.43;42.15;;;10.70;99.90;;;;;;5095950;28;20071;-24
2023/05/07 02:55:55;;;;;;;71.70;42.80;;;10.70;99.90;;;;;;5097029;28;20402;-24
2023/05/07 02:58:21;;;;;;;70.28;41.42;;;10.70;99.90;;;;;;5096969;28;20040;-24
2023/05/07 03:00:47;;;;;;;74.10;42.63;;;10.70;99.90;;;;;;5097685;28;20040;-24
2023/05/07 03:03:13;;;;;;;69.82;42.53;;;10.60;99.90;;;;;;5095769;28;20048;-25
2023/05/07 03:05:39;;;;;;;71.55;42.53;;;10.60;99.90;;;;;;5096855;28;20127;-24
2023/05/07 03:08:05;;;;;;;70.07;42.50;;;10.60;99.90;;;;;;5096822;28;20131;-24
2023/05/07 03:10:30;;;;;;;67.70;42.45;;;10.60;99.90;;;;;;5096730;28;20036;-24
2023/05/07 03:12:56;;;;;;;70.68;41.72;;;10.60;99.90;;;;;;5096714;28;20048;-24
2023/05/07 03:15:22;;;;;;;71.28;41.90;;;10.50;99.90;;;;;;5096704;28;20044;-24
2023/05/07 03:17:48;;;;;;;69.15;43.13;;;10.60;99.90;;;;;;5097194;28;20047;-24
2023/05/07 03:20:14;;;;;;;72.40;42.70;;;10.60;99.90;;;;;;5096522;28;20406;-23
2023/05/07 03:22:40;;;;;;;80.03;44.35;;;10.60;99.90;;;;;;5096528;28;20044;-23
2023/05/07 03:25:06;;;;;;;73.93;42.00;;;10.60;99.90;;;;;;5094884;28;20044;-23
2023/05/07 03:27:32;;;;;;;74.68;45.40;;;10.60;99.90;;;;;;5096712;28;20127;-23
2023/05/07 03:29:58;;;;;;;71.63;42.53;;;10.60;99.90;;;;;;5095454;28;20130;-24
2023/05/07 03:32:23;;;;;;;74.15;43.20;;;10.60;99.90;;;;;;5096333;28;20101;-24
2023/05/07 03:34:49;;;;;;;76.25;44.33;;;10.60;99.90;;;;;;5095347;28;20052;-23
2023/05/07 03:37:15;;;;;;;68.25;42.28;;;10.50;99.90;;;;;;5096240;28;20051;-24
2023/05/07 03:39:40;;;;;;;76.82;44.70;;;10.60;99.90;;;;;;5094897;28;20430;-23
2023/05/07 03:42:06;;;;;;;75.88;45.58;;;10.50;99.90;;;;;;5095242;28;20044;-23
2023/05/07 03:44:32;;;;;;;64.72;40.97;;;10.60;99.90;;;;;;5095755;28;20044;-24
2023/05/07 03:46:57;;;;;;;75.85;42.80;;;10.50;99.90;;;;;;5096103;28;20409;-23
2023/05/07 03:49:23;;;;;;;74.82;43.58;;;10.50;99.90;;;;;;5096182;28;20054;-23
2023/05/07 03:51:49;;;;;;;72.22;44.10;;;10.60;99.90;;;;;;5096296;28;20390;-23
2023/05/07 03:54:14;;;;;;;71.90;43.35;;;10.50;99.90;;;;;;5095917;28;20569;-23
2023/05/07 03:56:40;;;;;;;65.43;42.53;;;10.50;99.90;;;;;;5096474;28;20051;-24
2023/05/07 03:59:06;;;;;;;79.07;45.17;;;10.50;99.90;;;;;;5095773;28;20040;-23
2023/05/07 04:01:31;;;;;;;76.25;44.72;;;10.50;99.90;;;;;;5095770;28;20044;-23
2023/05/07 04:03:57;;;;;;;76.18;45.80;;;10.60;99.90;;;;;;5094618;28;20048;-23
2023/05/07 04:06:23;;;;;;;72.68;42.28;;;10.60;99.90;;;;;;5061220;28;20482;-23
2023/05/07 04:08:48;;;;;;;70.22;44.20;;;10.60;99.90;;;;;;5094409;28;20537;-23
2023/05/07 04:11:14;;;;;;;76.63;45.63;;;10.50;99.90;;;;;;5095593;28;20048;-23
2023/05/07 04:13:40;;;;;;;69.38;43.70;;;10.60;99.90;;;;;;5095578;28;20119;-23
2023/05/07 04:16:06;;;;;;;75.70;44.40;;;10.60;99.90;;;;;;5095543;28;20389;-23
2023/05/07 04:18:32;;;;;;;73.95;45.72;;;10.60;99.90;;;;;;5095486;28;20054;-23
2023/05/07 04:20:57;;;;;;;75.43;44.38;;;10.50;99.90;;;;;;5094171;28;20051;-23
2023/05/07 04:23:23;;;;;;;66.93;41.95;;;10.50;99.90;;;;;;5095354;28;20440;-23
2023/05/07 04:25:49;;;;;;;69.57;43.92;;;10.50;99.90;;;;;;5095150;28;20058;-23
2023/05/07 04:28:15;;;;;;;67.22;42.70;;;10.50;99.90;;;;;;5095259;28;20090;-23
2023/05/07 04:30:41;;;;;;;74.97;43.55;;;10.50;99.90;;;;;;5095116;28;20419;-23
2023/05/07 04:33:07;;;;;;;67.35;42.63;;;10.50;99.90;;;;;;5095968;28;20079;-23
2023/05/07 04:35:33;;;;;;;67.07;42.67;;;10.40;99.90;;;;;;5095024;28;20397;-23
2023/05/07 04:37:58;;;;;;;63.80;41.40;;;10.50;99.90;;;;;;5095569;28;20051;-23
2023/05/07 04:40:24;;;;;;;69.13;41.63;;;10.40;99.90;;;;;;5094841;28;20044;-23
2023/05/07 04:42:51;;;;;;;69.25;41.45;;;10.50;99.90;;;;;;5094877;28;20047;-23
2023/05/07 04:45:16;;;;;;;69.30;42.30;;;10.40;99.90;;;;;;5094843;28;20059;-23
2023/05/07 04:47:42;;;;;;;64.93;41.25;;;10.40;99.90;;;;;;5094877;28;20047;-23
2023/05/07 04:50:08;;;;;;;64.25;39.88;;;10.40;99.90;;;;;;5077351;28;20051;-23
2023/05/07 04:52:34;;;;;;;68.78;41.88;;;10.50;99.90;;;;;;5094799;28;20138;-23
2023/05/07 04:55:00;;;;;;;70.68;42.72;;;10.40;99.90;;;;;;5094758;28;20079;-23
2023/05/07 04:57:26;;;;;;;64.78;40.95;;;10.40;99.90;;;;;;5094681;28;20055;-23
2023/05/07 04:59:53;;;;;;;62.25;39.53;;;10.50;99.90;;;;;;5094575;28;20047;-23
2023/05/07 05:02:19;;;;;;;62.95;41.60;;;10.50;99.90;;;;;;5093939;28;20134;-23
2023/05/07 05:04:45;;;;;;;61.72;41.72;;;10.50;99.90;;;;;;5093645;28;20394;-23
2023/05/07 05:07:11;;;;;;;65.07;41.92;;;10.50;99.90;;;;;;5093225;28;20044;-23
2023/05/07 05:09:36;;;;;;;69.80;42.78;;;10.50;99.90;;;;;;5094425;28;20046;-23
2023/05/07 05:12:02;;;;;;;60.25;38.58;;;10.50;99.90;;;;;;5094991;28;20119;-23
2023/05/07 05:14:29;;;;;;;62.90;40.67;;;10.60;99.90;;;;;;5094266;28;20048;-23
2023/05/07 05:16:55;;;;;;;61.33;39.67;;;10.60;99.90;;;;;;5094384;28;20048;-23
2023/05/07 05:19:21;;;;;;;54.63;36.17;;;10.50;99.90;;;;;;5095062;28;20040;-23
2023/05/07 05:21:46;;;;;;;57.13;36.13;;;10.50;99.90;;;;;;5094235;28;20489;-23
2023/05/07 05:24:12;;;;;;;52.90;37.80;;;10.50;99.90;;;;;;5094739;28;20048;-23
2023/05/07 05:26:38;;;;;;;52.53;37.00;;;10.50;99.90;;;;;;5093653;28;20063;-23
2023/05/07 05:29:03;;;;;;;52.00;34.90;;;10.50;99.90;;;;;;5094361;28;20406;-23
2023/05/07 05:31:29;;;;;;;52.53;36.55;;;10.50;99.90;;;;;;5094066;28;20040;-23
2023/05/07 05:33:55;;;;;;;54.45;37.33;;;10.50;99.90;;;;;;5094024;28;20512;-23
2023/05/07 05:36:21;;;;;;;52.78;35.03;;;10.50;99.90;;;;;;5094059;28;20486;-23
2023/05/07 05:38:46;;;;;;;53.85;36.70;;;10.50;99.90;;;;;;5093946;28;20051;-23
2023/05/07 05:41:12;;;;;;;52.45;35.42;;;10.50;99.90;;;;;;5093725;28;20055;-23
2023/05/07 05:43:38;;;;;;;50.17;36.33;;;10.50;99.90;;;;;;5076250;28;20134;-23
2023/05/07 05:46:08;;;;;;;57.75;35.85;;;10.60;99.90;;;;;;5094230;28;20090;-23
2023/05/07 05:48:33;;;;;;;53.55;36.65;;;10.60;99.90;;;;;;5093859;28;20481;-23
2023/05/07 05:50:59;;;;;;;50.72;36.03;;;10.60;99.90;;;;;;5093692;28;20039;-23
2023/05/07 05:53:25;;;;;;;47.72;33.55;;;10.70;99.90;;;;;;5093793;28;20054;-23
2023/05/07 05:55:51;;;;;;;49.13;33.35;;;10.70;99.90;;;;;;5092601;28;20047;-23
2023/05/07 05:58:17;;;;;;;44.38;30.48;;;10.60;99.90;;;;;;5094329;28;20044;-24
2023/05/07 06:00:42;;;;;;;49.25;33.60;;;10.70;99.90;;;;;;5093846;28;20092;-23
2023/05/07 06:03:08;;;;;;;43.90;33.15;;;10.80;99.90;;;;;;5093716;28;20079;-23
2023/05/07 06:05:34;;;;;;;45.35;32.67;;;10.80;99.90;;;;;;5093918;28;20052;-23
2023/05/07 06:07:59;;;;;;;41.90;31.20;;;10.80;99.90;;;;;;5093721;28;20048;-23
2023/05/07 06:10:26;;;;;;;44.80;30.30;;;10.80;99.90;;;;;;5093685;28;20102;-23
2023/05/07 06:12:52;;;;;;;42.35;30.75;;;10.80;99.90;;;;;;5093577;28;20055;-23
2023/05/07 06:15:18;;;;;;;39.10;29.05;;;10.80;99.90;;;;;;5092014;28;20413;-24
2023/05/07 06:17:44;;;;;;;39.53;29.48;;;10.90;99.90;;;;;;5094266;28;20151;-23
2023/05/07 06:20:10;;;;;;;38.50;29.23;;;10.90;99.90;;;;;;5097715;28;20046;-24
2023/05/07 06:22:35;;;;;;;39.05;29.58;;;11.00;99.90;;;;;;5096440;28;20127;-23
2023/05/07 06:25:01;;;;;;;39.45;28.98;;;11.00;99.90;;;;;;5097558;28;20131;-23
2023/05/07 06:27:27;;;;;;;40.75;29.52;;;11.10;99.90;;;;;;5098345;28;20091;-23
2023/05/07 06:29:53;;;;;;;38.40;28.30;;;11.20;99.90;;;;;;5097536;28;20051;-24
2023/05/07 06:32:19;;;;;;;37.70;28.75;;;11.20;99.90;;;;;;5097413;28;20043;-24
2023/05/07 06:34:45;;;;;;;40.40;28.25;;;11.30;99.90;;;;;;5098201;28;20482;-23
2023/05/07 06:37:10;;;;;;;42.33;28.48;;;11.40;99.90;;;;;;5097591;28;20497;-24
2023/05/07 06:39:36;;;;;;;38.40;26.75;;;11.40;99.90;;;;;;5097896;28;20085;-24
2023/05/07 06:42:02;;;;;;;33.75;25.80;;;11.40;99.90;;;;;;5097249;28;20040;-23
2023/05/07 06:44:28;;;;;;;35.50;26.25;;;11.40;99.90;;;;;;5097196;28;20044;-24
2023/05/07 06:46:54;;;;;;;32.83;27.15;;;11.40;99.90;;;;;;5097293;28;20051;-23
2023/05/07 06:49:19;;;;;;;31.85;26.02;;;11.40;99.90;;;;;;5095724;28;20503;-24
2023/05/07 06:51:45;;;;;;;37.80;27.02;;;11.50;99.90;;;;;;5095963;28;20055;-23
2023/05/07 06:54:11;;;;;;;32.85;25.77;;;11.50;99.90;;;;;;5096913;28;20508;-24
2023/05/07 06:56:36;;;;;;;35.60;27.30;;;11.50;99.90;;;;;;5096899;28;20051;-24
2023/05/07 06:59:03;;;;;;;39.92;30.10;;;11.50;99.90;;;;;;5096067;28;20378;-24
2023/05/07 07:01:29;;;;;;;33.72;25.75;;;11.50;99.90;;;;;;5095677;28;20520;-24
2023/05/07 07:03:55;;;;;;;33.85;25.88;;;11.50;99.90;;;;;;5097469;28;20078;-24
2023/05/07 07:06:20;;;;;;;32.50;25.08;;;11.60;99.90;;;;;;5096714;28;20040;-24
2023/05/07 07:08:46;;;;;;;29.23;24.75;;;11.60;99.90;;;;;;5097331;28;20044;-24
2023/05/07 07:11:12;;;;;;;32.38;24.42;;;11.60;99.90;;;;;;5095547;28;20127;-24
2023/05/07 07:13:37;;;;;;;35.10;26.05;;;11.60;99.90;;;;;;5095278;28;20036;-24
2023/05/07 07:16:03;;;;;;;32.22;25.77;;;11.60;99.90;;;;;;5096882;28;20054;-24
2023/05/07 07:18:29;;;;;;;31.40;25.13;;;11.60;99.90;;;;;;5096549;28;20043;-24
2023/05/07 07:20:55;;;;;;;29.65;23.55;;;11.50;99.90;;;;;;5096443;28;20048;-23
2023/05/07 07:23:21;;;;;;;29.60;24.02;;;11.50;99.90;;;;;;5096459;28;20044;-24
2023/05/07 07:25:47;;;;;;;30.63;24.50;;;11.50;99.90;;;;;;5095194;28;20178;-23
2023/05/07 07:28:12;;;;;;;29.05;22.95;;;11.40;99.90;;;;;;5095110;28;20048;-24
2023/05/07 07:30:38;;;;;;;32.38;25.30;;;11.40;99.90;;;;;;5095375;28;20097;-24
2023/05/07 07:33:05;;;;;;;30.52;24.95;;;11.40;99.90;;;;;;5094173;28;20440;-24
2023/05/07 07:35:33;;;;;;;34.20;25.95;;;11.30;99.90;;;;;;5095912;28;20055;-24
2023/05/07 07:37:59;;;;;;;33.08;24.77;;;11.30;99.90;;;;;;5093870;28;20040;-24
2023/05/07 07:40:26;;;;;;;34.35;25.48;;;11.30;99.90;;;;;;5094937;28;20097;-24
2023/05/07 07:42:52;;;;;;;31.35;23.40;;;11.20;99.90;;;;;;5094257;28;20044;-24
2023/05/07 07:45:18;;;;;;;32.85;26.05;;;11.20;99.90;;;;;;5093905;28;20074;-23
2023/05/07 07:47:44;;;;;;;31.73;24.88;;;11.20;99.90;;;;;;5094852;28;20519;-24
2023/05/07 07:50:10;;;;;;;32.85;25.52;;;11.30;99.90;;;;;;5094836;28;20134;-24
2023/05/07 07:52:36;;;;;;;32.50;25.77;;;11.20;99.90;;;;;;5094878;28;20398;-24
2023/05/07 07:55:02;;;;;;;31.52;24.33;;;11.20;99.90;;;;;;5094780;28;20123;-24
2023/05/07 07:57:28;;;;;;;34.75;26.02;;;11.30;99.90;;;;;;5094810;28;20170;-24
2023/05/07 07:59:53;;;;;;;33.83;25.63;;;11.30;99.90;;;;;;5094623;28;20048;-24
2023/05/07 08:02:19;;;;;;;35.78;25.60;;;11.40;99.90;;;;;;5094959;28;20075;-24
2023/05/07 08:04:45;;;;;;;33.25;25.90;;;11.40;99.90;;;;;;5093398;28;20055;-24
2023/05/07 08:07:11;;;;;;;33.10;25.17;;;11.50;99.90;;;;;;5094512;28;20044;-24
2023/05/07 08:09:38;;;;;;;29.88;24.20;;;11.60;99.90;;;;;;5095008;28;20055;-23
2023/05/07 08:12:04;;;;;;;36.60;26.73;;;11.80;99.90;;;;;;5094513;28;20067;-24
2023/05/07 08:14:30;;;;;;;32.53;24.27;;;11.90;99.90;;;;;;5094408;28;20508;-24
2023/05/07 08:16:56;;;;;;;33.88;26.00;;;12.00;99.90;;;;;;5093404;28;20135;-24
2023/05/07 08:19:22;;;;;;;30.90;23.83;;;12.20;99.90;;;;;;5093340;28;20410;-24
2023/05/07 08:21:48;;;;;;;33.13;24.73;;;12.40;99.90;;;;;;5094297;28;20093;-24
2023/05/07 08:24:14;;;;;;;29.77;24.20;;;12.70;99.90;;;;;;5093346;28;20093;-25
2023/05/07 08:26:41;;;;;;;29.45;24.10;;;13.00;99.90;;;;;;5055087;28;1099804;-24
2023/05/07 08:29:07;;;;;;;29.45;22.38;;;13.30;99.90;;;;;;5095161;28;20048;-25
2023/05/07 08:31:33;;;;;;;26.92;22.05;;;13.40;99.90;;;;;;5077305;28;20044;-24
2023/05/07 08:33:59;;;;;;;30.55;23.17;;;13.60;99.90;;;;;;5095178;28;20044;-24
2023/05/07 08:36:25;;;;;;;26.42;21.65;;;13.80;99.90;;;;;;5095748;28;20104;-25
2023/05/07 08:38:52;;;;;;;27.70;21.92;;;13.90;99.90;;;;;;5094865;28;20086;-24
2023/05/07 08:41:18;;;;;;;26.48;21.52;;;14.00;99.90;;;;;;5076791;28;20087;-24
2023/05/07 08:43:48;;;;;;;24.70;20.98;;;14.00;99.90;;;;;;5094869;28;20119;-24
2023/05/07 08:46:18;;;;;;;32.33;23.42;;;14.10;99.90;;;;;;5095574;28;20501;-25
2023/05/07 08:48:44;;;;;;;27.55;20.90;;;13.90;99.90;;;;;;5094927;28;20052;-24
2023/05/07 08:51:13;;;;;;;25.95;22.02;;;14.00;99.90;;;;;;5093523;28;20056;-24
2023/05/07 08:53:41;;;;;;;26.70;20.90;;;14.10;99.90;;;;;;5094831;28;20131;-25
2023/05/07 08:56:09;;;;;;;26.30;19.75;;;14.10;99.90;;;;;;5094818;28;20071;-25
2023/05/07 08:58:34;;;;;;;24.08;19.85;;;14.10;99.90;;;;;;5094726;28;20056;-24
2023/05/07 09:01:07;;;;;;;26.70;20.42;;;14.20;99.90;;;;;;5094626;28;20542;-25
2023/05/07 09:03:33;;;;;;;25.17;21.42;;;14.20;99.90;;;;;;5094597;28;20109;-24
2023/05/07 09:05:59;;;;;;;24.73;21.42;;;14.30;99.90;;;;;;5094634;28;20052;-24
2023/05/07 09:08:28;;;;;;;24.58;20.30;;;14.30;99.90;;;;;;5093334;28;20074;-24
2023/05/07 09:10:54;;;;;;;25.27;21.48;;;14.30;99.90;;;;;;5094796;28;20432;-24
2023/05/07 09:13:20;;;;;;;29.77;20.65;;;14.40;99.90;;;;;;5094486;28;20126;-24
2023/05/07 09:15:45;;;;;;;27.55;21.98;;;14.60;99.90;;;;;;5093247;28;20134;-24
2023/05/07 09:18:12;;;;;;;23.90;20.15;;;14.90;99.90;;;;;;5094385;28;20044;-25
2023/05/07 09:20:39;;;;;;;24.92;20.30;;;15.00;99.90;;;;;;5095119;28;20051;-24
2023/05/07 09:23:07;;;;;;;25.10;20.15;;;15.20;77.50;;;;;;5094294;28;20055;-25
2023/05/07 09:25:33;;;;;;;24.85;19.25;;;15.40;99.90;;;;;;5094007;28;20052;-24
2023/05/07 09:28:00;;;;;;;24.52;18.88;;;15.40;1.00;;;;;;5094626;28;20063;-24
2023/05/07 09:30:33;;;;;;;23.85;19.67;;;15.50;1.00;;;;;;5094203;28;20047;-24
2023/05/07 09:33:00;;;;;;;26.25;20.63;;;15.50;1.00;;;;;;5094163;28;20477;-25
2023/05/07 09:35:27;;;;;;;22.73;18.48;;;15.70;1.00;;;;;;5094914;28;20052;-25
2023/05/07 09:37:54;;;;;;;21.92;18.63;;;15.70;1.00;;;;;;5094131;28;20047;-25
2023/05/07 09:40:24;;;;;;;22.70;20.17;;;15.80;1.00;;;;;;5093952;28;20043;-25
2023/05/07 09:42:50;;;;;;;23.70;20.02;;;15.80;99.90;;;;;;5094053;28;20054;-25
2023/05/07 09:45:30;;;;;;;23.65;18.52;;;16.00;99.90;;;;;;5094006;28;20044;-24
2023/05/07 09:47:57;;;;;;;22.55;18.02;;;16.10;99.90;;;;;;5094238;28;20048;-25
2023/05/07 09:50:28;;;;;;;22.63;18.65;;;16.10;99.90;;;;;;5093794;28;20127;-25
2023/05/07 09:52:55;;;;;;;24.17;19.80;;;16.20;99.90;;;;;;5076015;28;20478;-25
2023/05/07 09:55:22;;;;;;;22.90;19.33;;;16.50;99.90;;;;;;5093522;28;20109;-25
2023/05/07 09:57:52;;;;;;;21.08;18.20;;;16.80;99.90;;;;;;5093746;28;20048;-25
2023/05/07 10:00:21;;;;;;;20.98;18.20;;;17.20;99.90;;;;;;5093071;28;20040;-25
2023/05/07 10:02:51;;;;;;;23.73;19.15;;;17.40;99.90;;;;;;5093778;28;20054;-25
2023/05/07 10:05:22;;;;;;;22.70;19.17;;;17.60;1.00;;;;;;5092567;28;20048;-25
2023/05/07 10:07:48;;;;;;;21.00;18.42;;;17.60;99.90;;;;;;5094296;28;20085;-26
2023/05/07 10:10:15;;;;;;;22.42;19.13;;;17.70;99.90;;;;;;5093729;28;20037;-25
2023/05/07 10:12:41;;;;;;;24.90;19.23;;;17.90;99.90;;;;;;5094231;28;20054;-26
2023/05/07 10:15:10;;;;;;;20.00;17.50;;;17.90;99.90;;;;;;5093621;28;20052;-25
2023/05/07 10:17:39;;;;;;;22.75;18.45;;;18.00;1.00;;;;;;5094188;28;20044;-25
2023/05/07 10:20:06;;;;;;;22.80;19.00;;;18.10;47.90;;;;;;5094385;28;20124;-25
2023/05/07 10:22:46;;;;;;;35.10;23.55;;;18.10;99.70;;;;;;5093266;28;20461;-25
2023/05/07 10:25:28;;;;;;;30.52;20.88;;;18.20;1.00;;;;;;5094169;28;20052;-26
2023/05/07 10:27:56;;;;;;;25.23;19.10;;;18.30;21.70;;;;;;5093287;28;20513;-26
2023/05/07 10:30:25;;;;;;;21.08;16.90;;;18.40;99.90;;;;;;5093566;28;20036;-25
2023/05/07 10:32:54;;;;;;;22.67;17.15;;;18.50;1.00;;;;;;5092548;28;20047;-25
2023/05/07 10:35:26;;;;;;;18.42;16.30;;;18.70;1.00;;;;;;5093436;28;20083;-25
2023/05/07 10:37:52;;;;;;;20.17;17.98;;;18.90;99.90;;;;;;5093373;28;20134;-25
2023/05/07 10:40:21;;;;;;;26.65;19.42;;;19.30;99.90;;;;;;5093903;28;20036;-25
2023/05/07 10:43:06;;;;;;;20.55;17.40;;;19.50;85.00;;;;;;5093400;28;20440;-26
2023/05/07 10:45:32;;;;;;;22.40;17.38;;;19.40;99.90;;;;;;5094190;28;20071;-25
2023/05/07 10:48:15;;;;;;;32.17;21.73;;;19.50;1.00;;;;;;5093212;28;20044;-25
2023/05/07 10:50:42;;;;;;;30.55;20.17;;;20.00;41.00;;;;;;5075190;28;20080;-26
2023/05/07 10:53:16;;;;;;;26.67;18.75;;;20.60;99.90;;;;;;5093263;28;20040;-26
2023/05/07 10:55:43;;;;;;;19.00;16.38;;;21.30;99.90;;;;;;5093232;28;20402;-25
2023/05/07 10:58:21;;;;;;;17.83;15.93;;;21.40;1.00;;;;;;5093222;28;20119;-25
2023/05/07 11:00:48;;;;;;;18.15;16.17;;;21.10;1.00;;;;;;5093148;28;20044;-25
2023/05/07 11:03:14;;;;;;;22.75;18.40;;;21.20;99.90;;;;;;5094360;28;20051;-25
2023/05/07 11:05:41;;;;;;;24.23;18.17;;;21.60;99.90;;;;;;5095980;28;20052;-25
2023/05/07 11:08:08;;;;;;;17.65;15.75;;;21.50;1.00;;;;;;5096946;28;20052;-25
2023/05/07 11:10:50;;;;;;;22.33;17.10;;;21.80;99.90;;;;;;5096841;28;20414;-25
2023/05/07 11:13:16;;;;;;;15.60;13.75;;;22.30;99.90;;;;;;5096809;28;20044;-25
2023/05/07 11:15:47;;;;;;;20.02;15.45;;;22.40;1.00;;;;;;5097294;28;20079;-25
2023/05/07 11:18:15;;;;;;;17.13;15.00;;;22.40;99.90;;;;;;5095674;28;20056;-25
2023/05/07 11:20:47;;;;;;;16.05;14.38;;;22.20;1.00;;;;;;5096578;28;20039;-25
2023/05/07 11:23:34;;;;;;;17.63;15.43;;;22.20;99.90;;;;;;5096893;28;20044;-26
2023/05/07 11:26:02;;;;;;;17.23;14.65;;;22.00;42.90;;;;;;5096428;28;20117;-25
2023/05/07 11:28:29;;;;;;;16.17;14.68;;;22.00;99.90;;;;;;5096476;28;20097;-26
2023/05/07 11:30:56;;;;;;;15.73;14.13;;;22.10;99.90;;;;;;5087127;28;20048;-24
2023/05/07 11:33:22;;;;;;;17.30;14.52;;;21.80;99.90;;;;;;5078253;28;20536;-25
2023/05/07 11:35:48;;;;;;;15.80;14.20;;;21.60;99.90;;;;;;5081588;28;20051;-25
2023/05/07 11:38:15;;;;;;;14.85;13.27;;;21.50;99.90;;;;;;5095128;28;20441;-26
2023/05/07 11:41:02;;;;;;;15.02;13.52;;;21.00;1.00;;;;;;5095093;28;20110;-26
2023/05/07 11:43:28;;;;;;;14.00;12.50;;;21.10;1.00;;;;;;5097070;28;20070;-26
2023/05/07 11:45:54;;;;;;;16.42;13.45;;;21.40;24.70;;;;;;5095796;28;20489;-26
2023/05/07 11:48:21;;;;;;;15.40;12.98;;;21.60;1.00;;;;;;5079028;28;20044;-26
2023/05/07 11:50:59;;;;;;;13.40;12.00;;;22.10;1.00;;;;;;5096027;28;20052;-26
2023/05/07 11:53:26;;;;;;;13.30;12.00;;;22.50;99.90;;;;;;5095697;28;20131;-26
2023/05/07 11:55:55;;;;;;;13.65;12.25;;;22.90;99.90;;;;;;5094812;28;20102;-26
2023/05/07 11:58:23;;;;;;;13.18;11.88;;;23.20;99.90;;;;;;5095912;28;20478;-26
2023/05/07 12:00:50;;;;;;;19.02;13.10;;;23.60;4.90;;;;;;5095787;28;20122;-26
2023/05/07 12:03:17;;;;;;;14.45;12.75;;;23.30;1.00;;;;;;5095798;28;20054;-26
2023/05/07 12:05:44;;;;;;;14.18;11.80;;;23.10;1.00;;;;;;5077999;28;20402;-26
2023/05/07 12:08:15;;;;;;;13.40;11.90;;;23.00;17.60;;;;;;5096226;28;20047;-26
2023/05/07 12:10:45;;;;;;;13.00;11.70;;;23.10;1.00;;;;;;5094795;28;20040;-27
2023/05/07 12:13:18;;;;;;;13.60;11.00;;;23.20;1.00;;;;;;5095570;28;20106;-26
2023/05/07 12:15:44;;;;;;;13.07;11.70;;;22.80;1.00;;;;;;5093421;28;20044;-26
2023/05/07 12:18:13;;;;;;;13.00;11.68;;;22.70;80.80;;;;;;5096000;28;20176;-27
2023/05/07 12:20:40;;;;;;;12.85;11.55;;;22.70;9.50;;;;;;5095936;28;20040;-26
2023/05/07 12:23:06;;;;;;;14.00;12.63;;;22.50;53.00;;;;;;5094246;28;20525;-26
2023/05/07 12:25:36;;;;;;;12.52;11.25;;;22.30;13.20;;;;;;5077384;28;20087;-26